Time;durP1;ratioP1;P1;durP2;ratioP2;P2;SDS_P1;SDS_P2;PMS_P1;PMS_P2;Temp;Humidity;BMP_temperature;BMP_pressure;BME280_temperature;BME280_humidity;BME280_pressure;Samples;Min_cycle;Max_cycle;Signal;HPM_P1;HPM_P2
2021/05/03 00:02:22;;;;;;;6.90;1.90;;;;;;;8.66;86.53;101068.50;5021762;28;20031;-76
2021/05/03 00:04:48;;;;;;;5.10;1.73;;;;;;;8.56;86.86;101068.13;5025857;28;20047;-76
2021/05/03 00:07:13;;;;;;;3.85;2.10;;;;;;;8.52;86.79;101070.69;5037609;28;20071;-76
2021/05/03 00:09:38;;;;;;;4.35;2.25;;;;;;;8.73;85.95;101063.38;5041510;28;20447;-76
2021/05/03 00:12:04;;;;;;;4.15;2.13;;;;;;;8.60;86.73;101061.78;5049278;28;20032;-75
2021/05/03 00:14:30;;;;;;;6.72;2.17;;;;;;;8.66;86.48;101068.50;5044475;28;20470;-76
2021/05/03 00:16:56;;;;;;;7.60;2.08;;;;;;;8.55;86.31;101064.69;5051618;28;20112;-76
2021/05/03 00:19:21;;;;;;;5.93;2.55;;;;;;;8.47;87.01;101064.75;5046627;28;20029;-76
2021/05/03 00:21:46;;;;;;;5.15;2.30;;;;;;;8.46;86.88;101066.63;5016647;28;20048;-76
2021/05/03 00:24:12;;;;;;;6.00;2.50;;;;;;;8.23;87.96;101063.50;5067562;22;20048;-74
2021/05/03 00:26:37;;;;;;;9.32;2.40;;;;;;;8.33;87.97;101065.03;5030916;28;20378;-71
2021/05/03 00:29:03;;;;;;;3.00;2.40;;;;;;;8.45;87.30;101061.59;5030999;28;20025;-72
2021/05/03 00:31:29;;;;;;;4.85;2.53;;;;;;;8.33;87.92;101062.34;5031290;28;20038;-72
2021/05/03 00:33:54;;;;;;;5.80;2.63;;;;;;;8.35;87.61;101068.16;5028568;28;20038;-72
2021/05/03 00:36:20;;;;;;;4.28;2.35;;;;;;;8.46;87.49;101061.28;5030759;28;20045;-73
2021/05/03 00:38:45;;;;;;;4.50;2.40;;;;;;;8.46;87.67;101072.00;5014618;28;20060;-72
2021/05/03 00:41:11;;;;;;;3.35;2.40;;;;;;;8.42;87.88;101068.41;5031697;28;20059;-72
2021/05/03 00:43:36;;;;;;;5.20;2.40;;;;;;;8.50;87.42;101075.59;5031222;28;20037;-72
2021/05/03 00:46:02;;;;;;;7.90;2.40;;;;;;;8.43;86.98;101067.31;5031389;28;20029;-72
2021/05/03 00:48:27;;;;;;;5.70;2.60;;;;;;;8.30;87.84;101068.38;5006034;28;20057;-72
2021/05/03 00:50:53;;;;;;;4.63;2.30;;;;;;;8.27;88.52;101071.69;5025720;28;20095;-71
2021/05/03 00:53:19;;;;;;;4.63;3.03;;;;;;;8.36;88.12;101069.75;5029965;28;20060;-72
2021/05/03 00:55:45;;;;;;;4.80;2.30;;;;;;;8.29;87.80;101066.78;5030315;28;20044;-72
2021/05/03 00:58:11;;;;;;;6.22;3.10;;;;;;;8.32;87.95;101068.84;5029372;28;20033;-72
2021/05/03 01:00:37;;;;;;;5.72;2.75;;;;;;;8.28;88.08;101077.84;5006704;28;20475;-72
2021/05/03 01:03:04;;;;;;;5.03;3.05;;;;;;;8.13;88.46;101080.00;5012424;28;20071;-72
2021/05/03 01:05:30;;;;;;;10.18;3.30;;;;;;;7.90;89.49;101081.41;5035584;28;20045;-72
2021/05/03 01:07:57;;;;;;;5.63;2.90;;;;;;;8.09;89.07;101076.38;5015396;28;20029;-72
2021/05/03 01:10:23;;;;;;;5.22;3.00;;;;;;;7.98;89.38;101087.81;5025326;28;20421;-73
2021/05/03 01:12:49;;;;;;;8.38;3.22;;;;;;;7.97;89.35;101073.66;5010958;28;20036;-72
2021/05/03 01:15:22;;;;;;;10.25;2.88;;;;;;;7.93;89.36;101078.09;5009293;28;20441;-72
2021/05/03 01:17:55;;;;;;;7.45;3.00;;;;;;;7.89;89.83;101074.50;5024268;28;20057;-72
2021/05/03 01:20:21;;;;;;;5.05;2.85;;;;;;;7.87;89.78;101083.97;5029564;28;20033;-72
2021/05/03 01:22:46;;;;;;;5.13;3.30;;;;;;;7.82;90.02;101076.91;5017624;28;20390;-73
2021/05/03 01:25:12;;;;;;;7.03;3.30;;;;;;;7.66;90.35;101078.59;4995953;28;20026;-72
2021/05/03 01:27:38;;;;;;;13.85;3.05;;;;;;;7.68;90.61;101083.63;5024078;28;20034;-72
2021/05/03 01:30:07;;;;;;;5.35;3.25;;;;;;;7.53;91.05;101079.59;5020842;28;21189;-72
2021/05/03 01:32:33;;;;;;;5.43;3.25;;;;;;;7.63;91.15;101086.47;5029569;28;20388;-72
2021/05/03 01:34:59;;;;;;;6.00;2.90;;;;;;;7.63;91.47;101079.22;5029307;28;20737;-72
2021/05/03 01:37:24;;;;;;;5.90;2.95;;;;;;;7.48;91.84;101077.09;5032688;28;20045;-72
2021/05/03 01:39:50;;;;;;;9.05;2.63;;;;;;;7.44;92.00;101075.38;5024836;28;20129;-72
2021/05/03 01:42:15;;;;;;;5.25;2.85;;;;;;;7.52;91.56;101071.88;5017813;28;20692;-72
2021/05/03 01:44:43;;;;;;;5.80;3.05;;;;;;;7.66;91.08;101077.78;5025618;28;20072;-72
2021/05/03 01:47:09;;;;;;;4.65;2.97;;;;;;;7.72;90.60;101077.28;5029500;28;20165;-72
2021/05/03 01:49:36;;;;;;;9.23;3.13;;;;;;;7.64;91.12;101080.00;5029925;28;20522;-71
2021/05/03 01:52:03;;;;;;;4.88;2.92;;;;;;;7.52;91.63;101087.94;5010802;28;20120;-72
2021/05/03 01:54:28;;;;;;;5.75;3.25;;;;;;;7.53;91.15;101074.22;5029596;28;20033;-72
2021/05/03 01:56:54;;;;;;;7.63;3.13;;;;;;;7.44;91.96;101083.41;5025337;28;20398;-73
2021/05/03 01:59:19;;;;;;;5.70;2.95;;;;;;;7.34;92.62;101087.25;5023800;28;20092;-72
2021/05/03 02:01:45;;;;;;;5.70;3.30;;;;;;;7.34;92.68;101078.44;5031996;28;20090;-72
2021/05/03 02:04:11;;;;;;;6.05;2.85;;;;;;;7.29;92.67;101090.91;4999705;28;20493;-72
2021/05/03 02:06:37;;;;;;;7.47;3.17;;;;;;;7.20;92.69;101084.03;5043755;28;20043;-72
2021/05/03 02:09:11;;;;;;;7.43;2.70;;;;;;;7.25;93.97;101087.31;5013866;28;20729;-73
2021/05/03 02:11:39;;;;;;;5.47;2.67;;;;;;;7.27;93.71;101095.00;5026524;28;20034;-71
2021/05/03 02:14:05;;;;;;;11.07;3.00;;;;;;;7.51;91.76;101094.44;5028241;28;20042;-74
2021/05/03 02:16:31;;;;;;;3.90;2.60;;;;;;;7.60;91.42;101090.59;5033111;28;20088;-74
2021/05/03 02:18:56;;;;;;;5.22;2.60;;;;;;;7.71;90.97;101093.69;5027521;28;20493;-75
2021/05/03 02:21:22;;;;;;;5.38;2.72;;;;;;;7.62;91.19;101093.75;5019388;28;20113;-73
2021/05/03 02:23:47;;;;;;;2.75;2.35;;;;;;;7.51;91.49;101091.75;5030944;28;20029;-73
2021/05/03 02:26:14;;;;;;;6.88;2.75;;;;;;;7.60;90.69;101103.22;5022557;28;20040;-75
2021/05/03 02:28:39;;;;;;;4.78;2.88;;;;;;;7.57;91.73;101099.28;5029789;28;20053;-72
2021/05/03 02:31:04;;;;;;;5.18;2.60;;;;;;;7.62;91.12;101092.94;5032607;28;20108;-72
2021/05/03 02:33:30;;;;;;;6.53;2.70;;;;;;;7.59;91.13;101094.38;5020310;28;20045;-75
2021/05/03 02:35:56;;;;;;;5.47;2.75;;;;;;;7.75;90.41;101097.28;5001079;28;20076;-74
2021/05/03 02:38:23;;;;;;;6.38;2.97;;;;;;;7.70;90.29;101100.97;5009497;28;20091;-74
2021/05/03 02:40:49;;;;;;;3.08;2.30;;;;;;;7.51;91.65;101095.19;5025505;28;20037;-75
2021/05/03 02:43:14;;;;;;;6.22;2.88;;;;;;;7.62;90.83;101104.47;5006377;28;20025;-74
2021/05/03 02:45:40;;;;;;;3.85;2.72;;;;;;;7.46;91.91;101105.31;5025973;28;20049;-74
2021/05/03 02:48:05;;;;;;;4.80;2.40;;;;;;;7.51;91.39;101091.75;5030851;28;20029;-75
2021/05/03 02:50:31;;;;;;;7.28;3.08;;;;;;;7.48;91.65;101095.84;5026208;28;20065;-75
2021/05/03 02:52:57;;;;;;;6.13;3.20;;;;;;;7.50;91.96;101093.63;5031930;28;20017;-74
2021/05/03 02:55:22;;;;;;;9.25;2.78;;;;;;;7.55;91.18;101103.41;5026888;28;20030;-74
2021/05/03 02:57:50;;;;;;;6.72;2.90;;;;;;;7.57;91.57;101098.50;5021712;28;20049;-74
2021/05/03 03:00:27;;;;;;;7.63;2.80;;;;;;;7.41;92.45;101098.25;5030379;28;20029;-75
2021/05/03 03:02:54;;;;;;;6.38;2.78;;;;;;;7.31;92.54;101098.63;5013990;28;20132;-75
2021/05/03 03:05:19;;;;;;;5.72;2.67;;;;;;;7.25;92.23;101094.53;5027606;28;20559;-75
2021/05/03 03:07:45;;;;;;;6.70;2.55;;;;;;;7.42;91.87;101094.47;5032878;28;20072;-75
2021/05/03 03:10:11;;;;;;;3.45;2.78;;;;;;;7.42;92.06;101094.47;5000518;28;20071;-75
2021/05/03 03:12:37;;;;;;;5.82;2.55;;;;;;;7.39;92.09;101103.16;5029601;28;20072;-73
2021/05/03 03:15:03;;;;;;;5.15;2.72;;;;;;;7.16;91.61;101097.25;5011593;28;20476;-72
2021/05/03 03:17:29;;;;;;;4.18;2.45;;;;;;;7.38;92.69;101106.13;5028100;28;20034;-73
2021/05/03 03:19:55;;;;;;;4.68;2.33;;;;;;;7.27;92.46;101095.00;5017819;28;20490;-75
2021/05/03 03:22:20;;;;;;;6.63;2.25;;;;;;;7.14;92.38;101098.69;5027931;28;20040;-75
2021/05/03 03:24:46;;;;;;;3.50;2.63;;;;;;;7.30;92.21;101099.72;5019796;28;20026;-75
2021/05/03 03:27:11;;;;;;;5.18;2.85;;;;;;;7.28;92.09;101100.03;5019062;28;20032;-74
2021/05/03 03:29:37;;;;;;;7.10;2.65;;;;;;;7.15;92.33;101101.03;5025993;28;20129;-75
2021/05/03 03:32:02;;;;;;;4.15;2.58;;;;;;;7.14;93.01;101104.81;5025926;28;20022;-74
2021/05/03 03:34:28;;;;;;;5.30;2.80;;;;;;;7.11;92.44;101110.81;5031291;28;20040;-73
2021/05/03 03:36:53;;;;;;;5.60;2.97;;;;;;;7.04;93.81;101107.84;5024179;28;20033;-73
2021/05/03 03:39:19;;;;;;;4.43;3.00;;;;;;;6.82;94.27;101105.38;5004418;28;20095;-74
2021/05/03 03:41:44;;;;;;;4.40;2.97;;;;;;;7.11;93.27;101108.13;5024521;28;20108;-75
2021/05/03 03:44:10;;;;;;;5.28;3.13;;;;;;;7.14;93.39;101107.47;5031291;28;20033;-74
2021/05/03 03:46:36;;;;;;;4.32;3.00;;;;;;;6.99;94.00;101118.72;5026580;28;20151;-75
2021/05/03 03:49:02;;;;;;;6.72;3.28;;;;;;;7.02;94.53;101110.06;5006123;28;20033;-74
2021/05/03 03:51:27;;;;;;;6.38;3.22;;;;;;;6.94;94.15;101113.53;5010002;28;20561;-75
2021/05/03 03:53:54;;;;;;;5.18;2.97;;;;;;;6.96;94.21;101114.00;5027180;28;20041;-75
2021/05/03 03:56:21;;;;;;;5.60;3.22;;;;;;;6.92;94.19;101114.97;4985272;28;20146;-73
2021/05/03 03:58:47;;;;;;;5.97;3.30;;;;;;;6.96;93.71;101116.69;5019202;28;20422;-75
2021/05/03 04:01:14;;;;;;;9.50;4.28;;;;;;;6.91;94.30;101122.19;5027925;28;20116;-75
2021/05/03 04:03:47;;;;;;;4.40;3.22;;;;;;;6.98;93.72;101109.13;5021850;28;20072;-75
2021/05/03 04:06:46;;;;;;;5.15;3.00;;;;;;;6.81;94.46;101117.19;5031053;28;20029;-71
2021/05/03 04:22:42;;;;;;;5.28;2.85;;;;;;;6.92;93.65;101112.28;4993936;28;20532;-75
2021/05/03 04:25:18;;;;;;;4.40;2.67;;;;;;;6.83;93.15;101123.00;5013868;28;20049;-74
2021/05/03 04:27:44;;;;;;;4.13;2.50;;;;;;;6.88;94.02;101135.44;5014425;28;20034;-75
2021/05/03 04:30:10;;;;;;;3.80;2.90;;;;;;;6.89;94.59;101137.03;5010808;28;20034;-71
2021/05/03 04:32:36;;;;;;;5.57;3.03;;;;;;;6.93;94.41;101128.03;4997267;28;20072;-75
2021/05/03 04:35:03;;;;;;;5.20;3.08;;;;;;;7.13;93.63;101127.34;5018010;28;20081;-74
2021/05/03 04:37:28;;;;;;;6.40;3.40;;;;;;;7.06;93.26;101129.75;5020568;28;20038;-74
2021/05/03 04:39:54;;;;;;;5.70;3.35;;;;;;;7.05;93.44;101135.41;5011467;28;20102;-73
2021/05/03 04:42:19;;;;;;;5.00;3.17;;;;;;;7.05;93.29;101136.19;5020186;28;20038;-75
2021/05/03 04:44:44;;;;;;;8.05;2.92;;;;;;;7.13;93.38;101132.69;5017574;28;20041;-74
2021/05/03 04:47:10;;;;;;;7.40;3.20;;;;;;;7.09;93.89;101139.00;5014676;28;20038;-74
2021/05/03 04:49:36;;;;;;;3.72;2.72;;;;;;;7.16;92.74;101147.34;5018866;28;20060;-74
2021/05/03 04:52:02;;;;;;;4.38;3.00;;;;;;;7.12;92.92;101143.75;5022821;28;20033;-71
2021/05/03 04:54:28;;;;;;;5.93;3.00;;;;;;;7.08;94.15;101153.50;5020939;28;20034;-75
2021/05/03 04:56:53;;;;;;;5.93;2.92;;;;;;;7.03;93.93;101149.09;5008185;28;20444;-75
2021/05/03 04:59:19;;;;;;;6.55;3.20;;;;;;;7.30;92.51;101159.44;5015704;28;20071;-73
2021/05/03 05:01:44;;;;;;;6.03;3.10;;;;;;;7.21;93.12;101160.56;5016019;28;20084;-73
2021/05/03 05:04:10;;;;;;;5.78;2.95;;;;;;;7.37;92.07;101155.47;5017544;28;20448;-73
2021/05/03 05:06:35;;;;;;;3.95;2.78;;;;;;;7.40;92.62;101166.34;5017709;28;20025;-75
2021/05/03 05:09:04;;;;;;;8.32;3.03;;;;;;;7.40;94.02;101155.63;5003645;28;20103;-73
2021/05/03 05:11:34;;;;;;;7.53;3.20;;;;;;;7.67;92.86;101160.56;5009263;28;20458;-75
2021/05/03 05:13:59;;;;;;;8.35;3.50;;;;;;;7.79;93.78;101151.81;5014568;28;20038;-74
2021/05/03 05:16:25;;;;;;;5.63;3.25;;;;;;;8.06;92.93;101159.41;5018486;28;20607;-75
2021/05/03 05:18:50;;;;;;;5.05;3.00;;;;;;;8.39;91.67;101163.00;5018778;28;20045;-75
2021/05/03 05:21:16;;;;;;;5.78;2.55;;;;;;;8.62;90.14;101169.59;5009052;28;20037;-75
2021/05/03 05:23:42;;;;;;;5.43;2.85;;;;;;;8.87;88.01;101163.22;5020044;28;20033;-75
2021/05/03 05:26:08;;;;;;;6.25;3.17;;;;;;;8.72;88.17;101161.16;5018882;28;20029;-73
2021/05/03 05:28:34;;;;;;;7.15;3.63;;;;;;;8.65;87.75;101163.56;5015854;28;20536;-74
2021/05/03 05:31:00;;;;;;;4.00;2.63;;;;;;;8.97;87.93;101170.88;5002745;28;20575;-73
2021/05/03 05:33:26;;;;;;;5.47;2.67;;;;;;;9.21;86.74;101164.78;5024412;28;20065;-73
2021/05/03 05:35:51;;;;;;;6.78;2.88;;;;;;;9.21;86.30;101175.53;5030859;28;20073;-74
2021/05/03 05:38:17;;;;;;;3.50;2.60;;;;;;;9.66;83.66;101180.84;5034515;28;20028;-74
2021/05/03 05:40:42;;;;;;;4.32;2.60;;;;;;;9.74;83.50;101171.91;4998667;28;20485;-75
2021/05/03 05:43:08;;;;;;;5.80;2.42;;;;;;;9.93;81.85;101166.72;4993943;28;20510;-74
2021/05/03 05:45:33;;;;;;;4.63;2.63;;;;;;;9.95;81.76;101167.19;5003889;28;20652;-75
2021/05/03 05:47:59;;;;;;;4.43;2.60;;;;;;;9.79;81.83;101174.38;5030795;28;20095;-75
2021/05/03 05:50:24;;;;;;;8.95;2.92;;;;;;;10.04;81.96;101170.56;5018165;28;20021;-74
2021/05/03 05:52:50;;;;;;;4.30;2.65;;;;;;;10.36;80.79;101172.31;5014705;28;20041;-72
2021/05/03 05:55:15;;;;;;;4.03;2.30;;;;;;;10.45;79.91;101174.88;5033461;28;20056;-74
2021/05/03 05:57:41;;;;;;;5.82;2.70;;;;;;;10.64;77.75;101178.53;5024689;28;20037;-74
2021/05/03 06:00:07;;;;;;;4.90;2.72;;;;;;;10.73;76.43;101181.88;5023836;28;20047;-72
2021/05/03 06:02:39;;;;;;;6.72;2.88;;;;;;;10.70;76.42;101177.16;5012167;28;20520;-73
2021/05/03 06:05:05;;;;;;;5.57;2.33;;;;;;;10.73;76.24;101181.06;5026271;28;20053;-72
2021/05/03 06:07:30;;;;;;;3.28;2.40;;;;;;;10.88;76.33;101183.81;5022502;28;20037;-71
2021/05/03 06:09:56;;;;;;;3.38;2.15;;;;;;;10.86;75.69;101186.06;5024255;28;20496;-75
2021/05/03 06:12:22;;;;;;;3.42;2.17;;;;;;;11.07;74.69;101193.94;5024598;28;20057;-74
2021/05/03 06:14:47;;;;;;;4.03;2.08;;;;;;;11.05;74.01;101198.13;5020115;28;20086;-75
2021/05/03 06:17:15;;;;;;;5.93;2.45;;;;;;;11.07;74.83;101196.63;5004275;28;20063;-75
2021/05/03 06:19:41;;;;;;;2.33;2.00;;;;;;;11.34;73.25;101190.44;5022726;28;20041;-74
2021/05/03 06:22:06;;;;;;;3.60;2.60;;;;;;;11.33;72.71;101193.47;5013932;28;20040;-74
2021/05/03 06:24:31;;;;;;;2.65;2.25;;;;;;;11.53;73.58;101198.66;5041953;22;20079;-78
2021/05/03 06:26:57;;;;;;;6.80;2.20;;;;;;;11.50;72.81;101193.94;5034070;28;20033;-80
2021/05/03 06:29:22;;;;;;;4.97;2.47;;;;;;;11.50;73.02;101193.16;5048750;28;20559;-80
2021/05/03 06:31:48;;;;;;;3.67;2.15;;;;;;;11.47;71.96;101191.16;5047254;28;20037;-78
2021/05/03 06:34:13;;;;;;;4.97;2.33;;;;;;;11.44;72.57;101194.56;5039894;28;20393;-79
2021/05/03 06:36:39;;;;;;;3.42;2.35;;;;;;;11.35;72.60;101185.81;5032237;28;20124;-80
2021/05/03 06:39:05;;;;;;;5.00;2.40;;;;;;;11.45;73.07;101196.09;5036175;28;20057;-76
2021/05/03 06:41:30;;;;;;;4.10;2.20;;;;;;;11.51;73.93;101190.13;5016454;28;20493;-77
2021/05/03 06:43:55;;;;;;;3.30;2.35;;;;;;;11.55;74.15;101182.13;5035776;28;20037;-79
2021/05/03 06:46:21;;;;;;;4.90;2.47;;;;;;;11.86;72.87;101182.13;5040562;28;20059;-79
2021/05/03 06:48:46;;;;;;;5.72;2.08;;;;;;;12.00;72.29;101187.84;5031471;28;20804;-77
2021/05/03 06:51:14;;;;;;;3.42;2.00;;;;;;;12.23;69.30;101182.59;5026553;28;20028;-75
2021/05/03 06:53:40;;;;;;;4.40;2.35;;;;;;;12.07;69.23;101185.31;4998367;28;20087;-77
2021/05/03 06:56:07;;;;;;;4.22;2.40;;;;;;;11.86;69.25;101184.03;5022863;28;20033;-77
2021/05/03 06:58:32;;;;;;;5.53;2.20;;;;;;;11.66;71.08;101191.28;5001011;28;20531;-78
2021/05/03 07:00:58;;;;;;;6.13;2.30;;;;;;;11.54;71.95;101191.31;5017781;28;20152;-79
2021/05/03 07:03:23;;;;;;;4.35;2.25;;;;;;;11.54;72.40;101181.31;5017701;28;20469;-79
2021/05/03 07:05:49;;;;;;;2.58;2.13;;;;;;;11.31;72.69;101185.75;5002461;28;20060;-79
2021/05/03 07:08:19;;;;;;;6.25;2.05;;;;;;;11.08;72.91;101192.03;5014292;28;20023;-75
2021/05/03 07:10:47;;;;;;;5.32;2.15;;;;;;;10.98;73.47;101192.53;5018234;28;20025;-78
2021/05/03 07:13:14;;;;;;;3.38;2.20;;;;;;;11.43;72.74;101187.59;5004225;28;20519;-75
2021/05/03 07:15:40;;;;;;;3.17;2.00;;;;;;;11.70;73.94;101189.44;4990014;28;20068;-79
2021/05/03 07:18:06;;;;;;;5.53;2.22;;;;;;;11.73;73.54;101181.44;5023336;28;20040;-79
2021/05/03 07:20:32;;;;;;;4.45;2.25;;;;;;;12.18;71.20;101191.75;5025397;28;20037;-78
2021/05/03 07:22:57;;;;;;;7.28;2.00;;;;;;;12.24;68.89;101182.22;5028623;28;20025;-79
2021/05/03 07:25:23;;;;;;;2.85;1.88;;;;;;;12.30;68.90;101183.53;5008622;28;20041;-80
2021/05/03 07:27:48;;;;;;;4.25;1.90;;;;;;;12.21;68.06;101190.25;5033816;28;20025;-76
2021/05/03 07:30:15;;;;;;;3.25;1.83;;;;;;;12.36;67.33;101187.53;5025631;28;20129;-77
2021/05/03 07:32:42;;;;;;;2.00;1.60;;;;;;;12.69;67.28;101182.44;5007375;28;20033;-77
2021/05/03 07:35:10;;;;;;;1.90;1.70;;;;;;;12.94;66.68;101190.25;5040174;28;20032;-80
2021/05/03 07:37:37;;;;;;;3.65;1.60;;;;;;;12.83;66.12;101186.56;5024974;28;20049;-78
2021/05/03 07:40:04;;;;;;;4.20;2.00;;;;;;;12.44;64.73;101180.34;5030493;28;20021;-79
2021/05/03 07:42:30;;;;;;;3.97;1.90;;;;;;;12.38;65.42;101190.66;5014308;28;20030;-75
2021/05/03 07:44:55;;;;;;;3.15;1.83;;;;;;;12.33;64.44;101192.84;4999894;28;20037;-79
2021/05/03 07:47:21;;;;;;;2.00;1.70;;;;;;;12.27;64.29;101184.22;5003403;28;20033;-81
2021/05/03 07:49:46;;;;;;;2.58;1.65;;;;;;;12.60;64.65;101181.09;4995454;28;20049;-80
2021/05/03 07:52:12;;;;;;;2.05;1.55;;;;;;;12.71;65.60;101187.47;5018077;28;20033;-78
2021/05/03 07:54:37;;;;;;;2.70;1.60;;;;;;;13.00;62.81;101178.00;4986455;28;20518;-74
2021/05/03 07:57:03;;;;;;;3.85;1.38;;;;;;;13.09;61.56;101178.56;5021846;28;20044;-77
2021/05/03 07:59:29;;;;;;;1.92;1.20;;;;;;;13.09;62.45;101178.56;5009813;28;20033;-78
2021/05/03 08:01:54;;;;;;;5.18;1.58;;;;;;;13.11;61.51;101184.41;5005463;28;20022;-79
2021/05/03 08:04:21;;;;;;;4.43;1.50;;;;;;;13.17;60.37;101183.75;5015223;28;20554;-78
2021/05/03 08:06:47;;;;;;;2.08;1.40;;;;;;;13.34;60.57;101182.50;5031804;28;20025;-79
2021/05/03 08:09:12;;;;;;;3.10;1.42;;;;;;;13.27;61.05;101190.50;5005984;28;20029;-77
2021/05/03 08:11:44;;;;;;;2.85;1.50;;;;;;;13.27;60.48;101185.09;5030618;28;20063;-81
2021/05/03 08:14:17;;;;;;;3.88;1.58;;;;;;;13.34;60.11;101188.72;5027242;28;20505;-77
2021/05/03 08:16:42;;;;;;;2.75;1.30;;;;;;;13.19;59.13;101180.69;5005832;28;20042;-81
2021/05/03 08:19:08;;;;;;;3.13;1.30;;;;;;;13.01;59.88;101179.53;5030256;28;20021;-77
2021/05/03 08:21:34;;;;;;;3.08;1.25;;;;;;;12.99;59.69;101188.03;5027373;28;20633;-80
2021/05/03 08:23:59;;;;;;;1.92;1.40;;;;;;;13.12;58.95;101177.88;5013523;28;20029;-80
2021/05/03 08:26:25;;;;;;;2.67;1.30;;;;;;;13.27;58.67;101174.28;5040829;28;20459;-80
2021/05/03 08:28:50;;;;;;;3.13;1.55;;;;;;;13.61;58.19;101186.84;5011030;28;20029;-78
2021/05/03 08:31:16;;;;;;;2.15;1.20;;;;;;;13.74;56.43;101188.25;5015791;28;20043;-81
2021/05/03 08:33:41;;;;;;;4.53;1.20;;;;;;;13.64;56.40;101193.47;5008137;28;20049;-80
2021/05/03 08:36:07;;;;;;;2.20;1.40;;;;;;;13.48;57.04;101180.84;5005072;28;20021;-78
2021/05/03 08:38:33;;;;;;;5.50;1.70;;;;;;;13.22;57.14;101191.56;5007849;28;20409;-79
2021/05/03 08:40:59;;;;;;;2.25;1.35;;;;;;;12.97;56.96;101184.13;5033441;28;20599;-80
2021/05/03 08:43:28;;;;;;;2.35;1.45;;;;;;;12.58;57.99;101186.06;5027602;28;20715;-80
2021/05/03 08:45:53;;;;;;;2.88;1.20;;;;;;;12.72;57.69;101188.28;5026138;28;20040;-80
2021/05/03 08:49:05;;;;;;;4.00;1.10;;;;;;;12.95;57.79;101181.00;5025328;28;20113;-78
2021/05/03 08:53:42;;;;;;;2.10;1.67;;;;;;;12.64;59.56;101185.41;5021853;28;20119;-76
2021/05/03 08:56:08;;;;;;;4.68;2.30;;;;;;;12.57;61.93;101176.38;4997320;28;20847;-77
2021/05/03 08:58:38;;;;;;;2.42;1.83;;;;;;;12.47;62.86;101180.41;5010120;28;20037;-76
2021/05/03 09:01:05;;;;;;;3.35;1.75;;;;;;;12.53;62.53;101179.00;4989205;28;20088;-78
2021/05/03 09:03:33;;;;;;;3.05;1.95;;;;;;;12.87;62.46;101176.59;4993778;28;20840;-78
2021/05/03 09:06:04;;;;;;;5.75;1.88;;;;;;;13.55;61.73;101180.94;5034059;28;20144;-77
2021/05/03 09:08:30;;;;;;;1.95;1.27;;;;;;;13.76;58.49;101179.75;5015609;28;20093;-76
2021/05/03 09:10:56;;;;;;;1.70;1.30;;;;;;;13.78;57.31;101185.59;5008112;28;20033;-76
2021/05/03 09:13:36;;;;;;;2.05;1.40;;;;;;;13.40;57.65;101183.78;5035117;28;20407;-78
2021/05/03 09:16:23;;;;;;;2.85;1.70;;;;;;;13.17;57.33;101183.75;5026362;28;20050;-77
2021/05/03 09:18:50;;;;;;;1.80;1.63;;;;;;;12.88;58.60;101183.56;5033911;28;20034;-75
2021/05/03 09:21:30;;;;;;;2.92;1.80;;;;;;;12.66;60.67;101191.25;5027224;28;20064;-77
2021/05/03 09:24:08;;;;;;;1.52;1.40;;;;;;;12.58;62.76;101176.00;5023632;28;20030;-79
2021/05/03 09:26:44;;;;;;;1.98;1.60;;;;;;;12.27;63.92;101181.50;5015849;28;20126;-78
2021/05/03 09:29:31;;;;;;;4.20;1.83;;;;;;;12.15;65.81;101173.56;5019539;28;20030;-79
2021/05/03 09:32:11;;;;;;;2.55;1.80;;;;;;;12.21;67.19;101174.84;5023977;28;20040;-79
2021/05/03 09:34:47;;;;;;;3.97;1.60;;;;;;;12.53;63.57;101176.31;5016911;28;20065;-77
2021/05/03 09:37:28;;;;;;;3.35;1.63;;;;;;;12.41;61.02;101179.13;5024485;28;20033;-74
2021/05/03 09:39:58;;;;;;;3.65;2.05;;;;;;;12.23;62.01;101180.66;5004393;28;20551;-79
2021/05/03 09:42:40;;;;;;;2.72;1.90;;;;;;;12.39;61.94;101177.91;5026303;28;20079;-79
2021/05/03 09:45:09;;;;;;;2.85;2.25;;;;;;;12.27;64.27;101183.47;5029861;28;20041;-78
2021/05/03 09:47:35;;;;;;;3.30;2.97;;;;;;;12.19;65.77;101181.72;5004566;28;20859;-79
2021/05/03 09:50:05;;;;;;;3.38;3.08;;;;;;;12.09;68.27;101174.16;5029206;28;20037;-78
2021/05/03 09:52:30;;;;;;;6.55;4.00;;;;;;;11.68;70.30;101183.63;5027321;28;20116;-78
2021/05/03 09:54:56;;;;;;;4.95;3.80;;;;;;;11.54;74.12;101172.44;5010145;28;20087;-76
2021/05/03 09:57:21;;;;;;;4.68;3.60;;;;;;;12.00;74.95;101173.59;5020084;28;20033;-80
2021/05/03 09:59:49;;;;;;;5.78;3.97;;;;;;;12.16;74.21;101180.50;5022569;28;20531;-78
2021/05/03 10:04:51;;;;;;;4.97;3.40;;;;;;;12.54;70.04;101180.56;5005885;28;20034;-79
2021/05/03 10:07:19;;;;;;;4.30;3.65;;;;;;;12.45;70.41;101171.88;5027521;28;20051;-77
2021/05/03 10:09:51;;;;;;;4.05;3.40;;;;;;;12.79;68.78;101166.78;5030709;28;20058;-74
2021/05/03 10:12:18;;;;;;;3.45;3.03;;;;;;;13.00;68.21;101164.47;5007010;28;20041;-79
2021/05/03 10:14:47;;;;;;;3.72;3.30;;;;;;;13.04;67.53;101165.34;5023342;28;20038;-77
2021/05/03 10:17:15;;;;;;;5.88;3.38;;;;;;;13.01;65.99;101171.44;5007625;28;20041;-79
2021/05/03 10:19:42;;;;;;;5.68;2.78;;;;;;;12.78;66.94;101165.19;5001855;28;20034;-76
2021/05/03 10:22:15;;;;;;;3.00;2.70;;;;;;;12.85;67.44;101162.66;5022289;28;20095;-76
2021/05/03 10:24:41;;;;;;;3.80;2.95;;;;;;;12.91;67.36;101158.53;5030768;28;20049;-79
2021/05/03 10:27:06;;;;;;;4.50;3.05;;;;;;;12.86;68.00;101162.28;5010553;28;20378;-79
2021/05/03 10:29:40;;;;;;;2.53;2.33;;;;;;;12.73;67.57;101163.59;5005228;28;20042;-78
2021/05/03 10:32:11;;;;;;;2.97;1.98;;;;;;;12.97;65.64;101170.63;5012180;28;20034;-78
2021/05/03 10:34:38;;;;;;;2.47;1.70;;;;;;;12.88;63.95;101167.34;5004667;28;20064;-80
2021/05/03 10:37:26;;;;;;;1.98;1.75;;;;;;;13.10;63.66;101151.19;5012573;28;20057;-80
2021/05/03 10:39:52;;;;;;;3.10;1.95;;;;;;;12.87;66.12;101161.16;5020653;28;20458;-78
2021/05/03 10:42:21;;;;;;;2.75;1.73;;;;;;;12.38;67.00;101157.44;5038669;28;20029;-78
2021/05/03 10:45:06;;;;;;;2.10;1.85;;;;;;;12.14;68.53;101168.47;5044333;28;21590;-80
2021/05/03 10:47:45;;;;;;;2.22;2.03;;;;;;;11.66;71.71;101156.19;5049330;28;20033;-79
2021/05/03 10:56:37;;;;;;;4.45;3.45;;;;;;;12.17;68.48;101149.69;5034040;28;20038;-76
2021/05/03 10:59:03;;;;;;;4.28;3.88;;;;;;;11.97;68.65;101148.06;5034021;28;20621;-80
2021/05/03 11:01:48;;;;;;;5.25;4.03;;;;;;;12.01;69.99;101135.44;5018062;28;20037;-81
2021/05/03 11:04:14;;;;;;;5.85;4.90;;;;;;;12.08;69.15;101143.69;5026071;28;20100;-81
2021/05/03 11:06:43;;;;;;;5.68;4.93;;;;;;;12.48;68.67;101140.69;5014235;28;20114;-82
2021/05/03 11:12:01;;;;;;;5.45;4.95;;;;;;;12.40;65.99;101128.97;5027278;28;20120;-81
2021/05/03 11:14:31;;;;;;;6.72;4.53;;;;;;;12.79;66.37;101129.72;5033571;28;20555;-80
2021/05/03 11:17:14;;;;;;;6.20;4.65;;;;;;;12.62;69.37;101136.34;5033340;28;20036;-79
2021/05/03 11:20:10;;;;;;;5.38;4.30;;;;;;;12.89;65.54;101128.38;5020848;28;20063;-78
2021/05/03 11:22:38;;;;;;;4.97;4.47;;;;;;;12.57;68.35;101123.13;5029485;28;20170;-80
2021/05/03 11:25:10;;;;;;;6.28;4.88;;;;;;;12.88;66.40;101134.91;5027078;28;20042;-78
2021/05/03 11:27:48;;;;;;;;;;;;;;;12.69;66.80;101122.19;4992735;28;20056;-80
2021/05/03 11:30:34;;;;;;;4.38;3.83;;;;;;;12.48;65.24;101133.38;5029639;28;19913;-80
2021/05/03 11:33:08;;;;;;;5.20;4.30;;;;;;;12.13;68.03;101119.13;5007324;28;20153;-81
2021/05/03 11:38:10;;;;;;;4.95;4.45;;;;;;;12.59;68.42;101126.25;5033821;28;20044;-78
2021/05/03 11:43:59;;;;;;;5.70;4.57;;;;;;;13.24;65.42;101115.50;5008332;28;20678;-81
2021/05/03 11:46:36;;;;;;;5.32;4.20;;;;;;;13.42;63.42;101111.94;5007020;28;20044;-81
2021/05/03 11:49:12;;;;;;;6.95;4.72;;;;;;;13.75;62.11;101110.50;5027376;28;20025;-81
2021/05/03 11:51:52;;;;;;;4.85;4.30;;;;;;;13.80;62.10;101118.31;5009360;28;20083;-77
2021/05/03 11:54:24;;;;;;;6.90;4.65;;;;;;;13.35;62.36;101119.16;5031792;28;20583;-79
2021/05/03 11:57:06;;;;;;;;;;;;;;;12.68;65.09;101116.00;5022895;28;20486;-80
2021/05/03 11:59:32;;;;;;;5.78;4.68;;;;;;;12.87;65.28;101114.41;5021070;28;19921;-81
2021/05/03 12:02:02;;;;;;;5.95;4.63;;;;;;;12.89;65.03;101120.25;5017625;28;20468;-80
2021/05/03 12:04:39;;;;;;;6.10;4.93;;;;;;;13.14;64.38;101118.81;5029779;28;20033;-78
2021/05/03 12:07:14;;;;;;;6.35;4.97;;;;;;;13.29;64.78;101117.91;5029347;28;20084;-80